createdAt,value
2019-02-14T00:02:33.198Z,5.10
2019-02-14T00:05:38.104Z,5.10
2019-02-14T00:08:43.389Z,4.90
2019-02-14T00:11:48.416Z,4.80
2019-02-14T00:14:53.579Z,4.70
2019-02-14T00:17:58.483Z,4.80
2019-02-14T00:21:03.351Z,4.80
2019-02-14T00:24:08.269Z,4.80
2019-02-14T00:27:14.582Z,4.90
2019-02-14T00:30:19.695Z,4.90
2019-02-14T00:33:24.564Z,4.90
2019-02-14T00:36:29.654Z,4.90
2019-02-14T00:39:34.881Z,4.80
2019-02-14T00:42:39.820Z,4.80
2019-02-14T00:45:45.002Z,4.60
2019-02-14T00:48:50.015Z,4.50
2019-02-14T00:51:54.987Z,4.60
2019-02-14T00:54:59.987Z,4.40
2019-02-14T00:58:04.941Z,4.40
2019-02-14T01:01:10.051Z,4.30
2019-02-14T01:04:15.140Z,4.40
2019-02-14T01:07:20.319Z,4.40
2019-02-14T01:10:25.393Z,4.30
2019-02-14T01:13:30.812Z,4.30
2019-02-14T01:16:35.990Z,4.50
2019-02-14T01:19:41.044Z,4.50
2019-02-14T01:22:46.013Z,4.60
2019-02-14T01:25:51.009Z,4.60
2019-02-14T01:28:56.113Z,4.50
2019-02-14T01:32:01.070Z,4.60
2019-02-14T01:35:06.438Z,4.60
2019-02-14T01:38:11.365Z,4.60
2019-02-14T01:41:16.249Z,4.70
2019-02-14T01:44:21.717Z,4.80
2019-02-14T01:47:27.121Z,4.80
2019-02-14T01:50:32.109Z,4.80
2019-02-14T01:53:37.105Z,4.80
2019-02-14T01:56:42.171Z,4.80
2019-02-14T01:59:47.060Z,4.80
2019-02-14T02:02:51.973Z,4.80
2019-02-14T02:05:57.035Z,4.80
2019-02-14T02:09:02.246Z,4.80
2019-02-14T02:12:07.508Z,4.80
2019-02-14T02:15:13.926Z,4.80
2019-02-14T02:18:19.310Z,4.80
2019-02-14T02:21:24.329Z,4.80
2019-02-14T02:24:29.284Z,4.70
2019-02-14T02:27:34.447Z,4.70
2019-02-14T02:30:39.389Z,4.70
2019-02-14T02:33:44.249Z,4.70
2019-02-14T02:36:49.168Z,4.80
2019-02-14T02:39:54.202Z,4.90
2019-02-14T02:42:59.302Z,5.00
2019-02-14T02:46:04.376Z,5.00
2019-02-14T02:49:09.608Z,5.00
2019-02-14T02:52:14.582Z,4.90
2019-02-14T02:55:19.596Z,4.90
2019-02-14T02:58:24.637Z,4.90
2019-02-14T03:01:29.558Z,5.00
2019-02-14T03:04:34.632Z,5.00
2019-02-14T03:07:39.830Z,5.00
2019-02-14T03:10:44.817Z,5.00
2019-02-14T03:13:49.841Z,5.10
2019-02-14T03:16:54.770Z,5.00
2019-02-14T03:19:59.774Z,4.90
2019-02-14T03:23:04.740Z,4.90
2019-02-14T03:26:09.903Z,5.00
2019-02-14T03:29:14.920Z,5.00
2019-02-14T03:32:20.049Z,5.00
2019-02-14T03:35:25.052Z,5.00
2019-02-14T03:38:29.938Z,5.00
2019-02-14T03:41:35.192Z,5.00
2019-02-14T03:44:40.214Z,5.00
2019-02-14T03:47:45.548Z,5.00
2019-02-14T03:50:50.599Z,5.00
2019-02-14T03:54:14.467Z,5.00
2019-02-14T03:57:22.678Z,4.90
2019-02-14T04:00:27.967Z,4.90
2019-02-14T04:03:32.977Z,4.90
2019-02-14T04:06:38.225Z,4.90
2019-02-14T04:09:43.347Z,4.80
2019-02-14T04:12:48.419Z,4.80
2019-02-14T04:15:53.631Z,4.80
2019-02-14T04:18:58.573Z,4.70
2019-02-14T04:22:03.455Z,4.70
2019-02-14T04:25:08.516Z,4.60
2019-02-14T04:28:13.604Z,4.70
2019-02-14T04:31:18.453Z,4.80
2019-02-14T04:34:23.377Z,4.80
2019-02-14T04:37:28.397Z,4.90
2019-02-14T04:40:33.871Z,4.90
2019-02-14T04:43:38.770Z,4.90
2019-02-14T04:46:43.783Z,4.90
2019-02-14T04:49:48.743Z,4.90
2019-02-14T04:52:53.707Z,4.80
2019-02-14T04:55:58.553Z,4.80
2019-02-14T04:59:03.564Z,4.80
2019-02-14T05:02:08.698Z,4.80
2019-02-14T05:05:13.665Z,4.80
2019-02-14T05:08:18.579Z,4.80
2019-02-14T05:11:23.477Z,4.80
2019-02-14T05:14:28.386Z,4.70
2019-02-14T05:17:33.931Z,4.60
2019-02-14T05:20:38.989Z,4.60
2019-02-14T05:23:44.282Z,4.50
2019-02-14T05:26:49.619Z,4.50
2019-02-14T05:29:54.764Z,4.50
2019-02-14T05:32:59.846Z,4.60
2019-02-14T05:36:05.074Z,4.50
2019-02-14T05:39:09.958Z,4.50
2019-02-14T05:42:14.844Z,4.50
2019-02-14T05:45:19.892Z,4.40
2019-02-14T05:48:24.998Z,4.30
2019-02-14T05:51:29.945Z,4.20
2019-02-14T05:54:34.939Z,4.30
2019-02-14T05:57:40.110Z,4.20
2019-02-14T06:00:45.478Z,4.20
2019-02-14T06:03:50.716Z,4.20
2019-02-14T06:07:00.971Z,4.10
2019-02-14T06:10:02.277Z,4.10
2019-02-14T06:13:07.305Z,4.20
2019-02-14T06:16:12.427Z,4.20
2019-02-14T06:19:17.996Z,4.30
2019-02-14T06:22:22.830Z,4.40
2019-02-14T06:25:28.083Z,4.40
2019-02-14T06:28:32.999Z,4.40
2019-02-14T06:31:38.149Z,4.40
2019-02-14T06:34:43.697Z,4.40
2019-02-14T06:37:48.837Z,4.40
2019-02-14T06:40:54.756Z,4.40
2019-02-14T06:43:59.748Z,4.50
2019-02-14T06:47:04.888Z,4.50
2019-02-14T06:50:10.444Z,4.60
2019-02-14T06:53:15.576Z,4.70
2019-02-14T06:56:20.638Z,4.90
2019-02-14T06:59:25.831Z,5.00
2019-02-14T07:02:30.806Z,5.10
2019-02-14T07:05:35.896Z,5.30
2019-02-14T07:08:40.861Z,5.40
2019-02-14T07:11:46.299Z,5.50
2019-02-14T07:14:51.449Z,5.50
2019-02-14T07:17:56.674Z,5.60
2019-02-14T07:21:01.633Z,5.60
2019-02-14T07:24:06.557Z,5.80
2019-02-14T07:27:11.941Z,6.00
2019-02-14T07:30:18.600Z,6.00
2019-02-14T07:33:23.585Z,6.10
2019-02-14T07:36:28.628Z,6.30
2019-02-14T07:39:33.581Z,6.60
2019-02-14T07:42:38.652Z,6.80
2019-02-14T07:45:43.636Z,7.10
2019-02-14T07:48:48.667Z,7.30
2019-02-14T07:51:53.675Z,7.60
2019-02-14T07:54:58.662Z,7.80
2019-02-14T07:58:03.519Z,8.00
2019-02-14T08:01:08.476Z,8.10
2019-02-14T08:04:16.499Z,8.30
2019-02-14T08:07:21.437Z,8.40
2019-02-14T08:10:26.276Z,8.60
2019-02-14T08:13:31.520Z,8.90
2019-02-14T08:16:36.540Z,9.10
2019-02-14T08:19:41.493Z,9.30
2019-02-14T08:22:46.537Z,9.20
2019-02-14T08:25:52.592Z,9.40
2019-02-14T08:28:57.648Z,9.40
2019-02-14T08:32:02.745Z,9.50
2019-02-14T08:35:08.137Z,9.50
2019-02-14T08:38:13.245Z,9.40
2019-02-14T08:41:18.188Z,9.40
2019-02-14T08:44:23.224Z,9.30
2019-02-14T08:47:28.284Z,9.30
2019-02-14T08:50:33.177Z,9.30
2019-02-14T08:53:38.357Z,9.20
2019-02-14T08:56:43.301Z,9.30
2019-02-14T08:59:48.430Z,9.40
2019-02-14T09:02:53.737Z,9.60
2019-02-14T09:05:58.716Z,9.80
2019-02-14T09:09:05.325Z,10.00
2019-02-14T09:12:10.225Z,10.40
2019-02-14T09:15:15.381Z,11.70
2019-02-14T09:18:20.295Z,15.00
2019-02-14T09:21:25.437Z,19.50
2019-02-14T09:24:30.355Z,23.50
2019-02-14T09:27:35.271Z,26.60
2019-02-14T09:30:40.226Z,29.30
2019-02-14T09:33:45.340Z,31.50
2019-02-14T09:36:50.416Z,32.90
2019-02-14T09:39:55.417Z,33.40
2019-02-14T09:43:00.386Z,30.90
2019-02-14T09:46:05.544Z,27.90
2019-02-14T09:49:10.776Z,25.50
2019-02-14T09:52:15.888Z,23.30
2019-02-14T09:55:20.908Z,22.00
2019-02-14T09:58:25.904Z,24.00
2019-02-14T10:01:31.016Z,27.60
2019-02-14T10:04:35.990Z,30.30
2019-02-14T10:07:41.123Z,33.10
2019-02-14T10:10:46.145Z,35.50
2019-02-14T10:13:51.098Z,37.00
2019-02-14T10:16:56.988Z,37.90
2019-02-14T10:20:02.131Z,39.00
2019-02-14T10:23:07.141Z,40.30
2019-02-14T10:26:12.380Z,40.80
2019-02-14T10:29:17.417Z,40.60
2019-02-14T10:32:22.652Z,39.90
2019-02-14T10:35:28.068Z,38.40
2019-02-14T10:38:33.074Z,38.40
2019-02-14T10:41:38.229Z,38.80
2019-02-14T10:44:43.183Z,38.70
2019-02-14T10:47:48.063Z,39.60
2019-02-14T10:50:53.160Z,41.00
2019-02-14T10:53:58.246Z,40.70
2019-02-14T10:57:03.269Z,40.30
2019-02-14T11:00:16.245Z,40.70
2019-02-14T11:03:21.381Z,41.00
2019-02-14T11:06:26.387Z,40.50
2019-02-14T11:09:31.594Z,40.10
2019-02-14T11:12:36.620Z,37.50
2019-02-14T11:15:41.693Z,34.90
2019-02-14T11:18:48.465Z,33.30
2019-02-14T11:21:53.416Z,32.70
2019-02-14T11:24:59.268Z,32.30
2019-02-14T11:28:04.505Z,32.70
2019-02-14T11:31:09.525Z,33.60
2019-02-14T11:34:14.584Z,35.80
2019-02-14T11:37:19.562Z,36.00
2019-02-14T11:40:24.681Z,37.50
2019-02-14T11:43:29.741Z,37.20
2019-02-14T11:46:34.954Z,35.70
2019-02-14T11:49:39.941Z,33.50
2019-02-14T11:52:45.030Z,31.90
2019-02-14T11:55:50.014Z,31.00
2019-02-14T11:58:55.095Z,30.40
2019-02-14T12:02:00.082Z,29.60
2019-02-14T12:05:05.282Z,28.60
2019-02-14T12:08:10.354Z,28.40
2019-02-14T12:11:15.203Z,29.30
2019-02-14T12:14:20.128Z,30.40
2019-02-14T12:17:25.049Z,31.50
2019-02-14T12:20:30.141Z,34.30
2019-02-14T12:23:35.171Z,36.80
2019-02-14T12:26:40.285Z,36.90
2019-02-14T12:29:45.474Z,38.10
2019-02-14T12:32:50.483Z,40.00
2019-02-14T12:35:55.572Z,42.00
2019-02-14T12:39:08.583Z,43.60
2019-02-14T12:42:25.926Z,43.90
2019-02-14T12:45:30.800Z,44.70
2019-02-14T12:48:35.717Z,45.10
2019-02-14T12:51:40.808Z,45.10
2019-02-14T12:54:45.897Z,43.80
2019-02-14T12:57:50.886Z,44.10
2019-02-14T13:00:55.881Z,44.40
2019-02-14T13:04:00.811Z,43.80
2019-02-14T13:07:06.277Z,42.20
2019-02-14T13:10:12.042Z,41.30
2019-02-14T13:13:16.998Z,39.70
2019-02-14T13:16:22.127Z,39.60
2019-02-14T13:19:26.941Z,39.80
2019-02-14T13:22:31.939Z,40.80
2019-02-14T13:25:36.910Z,40.40
2019-02-14T13:28:41.797Z,40.10
2019-02-14T13:31:46.858Z,39.30
2019-02-14T13:34:51.821Z,38.40
2019-02-14T13:37:57.289Z,38.20
2019-02-14T13:41:02.438Z,39.00
2019-02-14T13:44:07.451Z,38.20
2019-02-14T13:47:12.805Z,38.40
2019-02-14T13:50:18.018Z,37.40
2019-02-14T13:53:22.996Z,35.80
2019-02-14T13:56:28.029Z,35.10
2019-02-14T13:59:32.979Z,36.00
2019-02-14T14:02:38.090Z,34.20
2019-02-14T14:05:43.335Z,33.50
2019-02-14T14:08:48.302Z,33.70
2019-02-14T14:11:54.598Z,33.70
2019-02-14T14:14:59.473Z,32.40
2019-02-14T14:18:04.638Z,30.90
2019-02-14T14:21:09.837Z,29.00
2019-02-14T14:24:14.859Z,27.00
2019-02-14T14:27:19.872Z,25.20
2019-02-14T14:30:25.002Z,23.30
2019-02-14T14:33:30.025Z,21.90
2019-02-14T14:36:35.196Z,21.20
2019-02-14T14:39:47.595Z,20.50
2019-02-14T14:43:05.678Z,19.70
2019-02-14T14:46:14.703Z,18.90
2019-02-14T14:49:19.745Z,18.30
2019-02-14T14:52:24.803Z,17.70
2019-02-14T14:55:29.826Z,17.20
2019-02-14T14:58:35.097Z,16.60
2019-02-14T15:01:40.065Z,16.40
2019-02-14T15:04:45.209Z,16.30
2019-02-14T15:07:50.152Z,15.90
2019-02-14T15:10:55.254Z,15.80
2019-02-14T15:14:00.415Z,15.70
2019-02-14T15:17:05.773Z,15.50
2019-02-14T15:20:10.690Z,15.40
2019-02-14T15:23:15.574Z,15.00
2019-02-14T15:26:20.776Z,14.90
2019-02-14T15:29:25.723Z,14.70
2019-02-14T15:32:30.851Z,14.80
2019-02-14T15:35:35.856Z,14.70
2019-02-14T15:38:40.850Z,14.70
2019-02-14T15:41:45.963Z,14.70
2019-02-14T15:44:50.937Z,14.60
2019-02-14T15:47:56.056Z,14.40
2019-02-14T15:51:01.277Z,14.30
2019-02-14T15:54:07.450Z,14.20
2019-02-14T15:57:12.926Z,14.20
2019-02-14T16:00:18.016Z,14.10
2019-02-14T16:03:23.053Z,13.90
2019-02-14T16:06:30.234Z,13.80
2019-02-14T16:09:36.531Z,13.70
2019-02-14T16:12:43.507Z,13.50
2019-02-14T16:15:48.333Z,13.50
2019-02-14T16:18:53.454Z,13.40
2019-02-14T16:21:58.709Z,13.40
2019-02-14T16:25:04.608Z,13.30
2019-02-14T16:28:11.659Z,13.20
2019-02-14T16:31:17.449Z,13.20
2019-02-14T16:34:22.710Z,13.10
2019-02-14T16:37:27.863Z,13.00
2019-02-14T16:40:38.522Z,13.00
2019-02-14T16:43:39.531Z,12.90
2019-02-14T16:46:44.472Z,12.90
2019-02-14T16:49:49.675Z,12.80
2019-02-14T16:52:54.770Z,12.80
2019-02-14T16:56:02.017Z,12.70
2019-02-14T16:59:06.217Z,12.60
2019-02-14T17:02:11.169Z,12.60
2019-02-14T17:05:16.071Z,12.50
2019-02-14T17:08:21.228Z,12.50
2019-02-14T17:11:26.432Z,12.40
2019-02-14T17:14:31.439Z,12.30
2019-02-14T17:17:36.725Z,12.10
2019-02-14T17:20:41.825Z,12.00
2019-02-14T17:23:46.731Z,11.90
2019-02-14T17:26:51.668Z,11.80
2019-02-14T17:29:56.607Z,11.70
2019-02-14T17:33:01.555Z,11.60
2019-02-14T17:36:06.460Z,11.50
2019-02-14T17:39:11.473Z,11.40
2019-02-14T17:42:16.448Z,11.30
2019-02-14T17:45:21.414Z,11.20
2019-02-14T17:48:26.670Z,11.10
2019-02-14T17:51:31.901Z,11.00
2019-02-14T17:54:36.981Z,10.90
2019-02-14T17:57:42.149Z,10.90
2019-02-14T18:00:47.256Z,10.70
2019-02-14T18:03:52.438Z,10.60
2019-02-14T18:06:57.829Z,10.60
2019-02-14T18:10:03.105Z,10.40
2019-02-14T18:13:07.990Z,10.40
2019-02-14T18:16:12.936Z,10.30
2019-02-14T18:19:17.935Z,10.30
2019-02-14T18:22:23.071Z,10.20
2019-02-14T18:25:28.020Z,10.00
2019-02-14T18:28:33.396Z,9.90
2019-02-14T18:31:38.677Z,9.90
2019-02-14T18:34:43.691Z,9.90
2019-02-14T18:37:48.755Z,9.80
2019-02-14T18:40:53.984Z,9.80
2019-02-14T18:43:59.241Z,9.60
2019-02-14T18:47:04.219Z,9.60
2019-02-14T18:50:09.694Z,9.50
2019-02-14T18:53:14.694Z,9.50
2019-02-14T18:56:19.662Z,9.40
2019-02-14T18:59:24.738Z,9.30
2019-02-14T19:02:30.042Z,9.30
2019-02-14T19:05:35.106Z,9.20
2019-02-14T19:08:40.177Z,9.10
2019-02-14T19:11:45.363Z,9.10
2019-02-14T19:14:50.341Z,8.90
2019-02-14T19:17:55.647Z,8.80
2019-02-14T19:21:00.555Z,8.70
2019-02-14T19:24:05.609Z,8.70
2019-02-14T19:27:10.794Z,8.70
2019-02-14T19:30:15.986Z,8.60
2019-02-14T19:33:21.094Z,8.50
2019-02-14T19:36:26.237Z,8.50
2019-02-14T19:39:31.521Z,8.50
2019-02-14T19:42:36.617Z,8.40
2019-02-14T19:45:41.867Z,8.30
2019-02-14T19:48:46.836Z,8.20
2019-02-14T19:51:51.925Z,8.10
2019-02-14T19:54:57.040Z,8.00
2019-02-14T19:58:02.075Z,8.00
2019-02-14T20:01:07.361Z,7.90
2019-02-14T20:04:12.657Z,8.00
2019-02-14T20:07:17.630Z,7.90
2019-02-14T20:10:22.626Z,7.90
2019-02-14T20:13:27.534Z,7.90
2019-02-14T20:16:32.589Z,7.90
2019-02-14T20:19:37.809Z,7.80
2019-02-14T20:22:42.799Z,7.70
2019-02-14T20:25:47.958Z,7.50
2019-02-14T20:28:53.148Z,7.50
2019-02-14T20:31:58.364Z,7.40
2019-02-14T20:35:03.411Z,7.30
2019-02-14T20:38:08.412Z,7.30
2019-02-14T20:41:13.389Z,7.30
2019-02-14T20:44:18.309Z,7.30
2019-02-14T20:47:23.612Z,7.30
2019-02-14T20:50:28.659Z,7.20
2019-02-14T20:53:33.808Z,7.20
2019-02-14T20:56:38.804Z,7.20
2019-02-14T20:59:44.082Z,7.10
2019-02-14T21:02:48.994Z,7.00
2019-02-14T21:05:53.938Z,7.00
2019-02-14T21:08:58.780Z,7.00
2019-02-14T21:12:03.767Z,7.00
2019-02-14T21:15:09.282Z,7.00
2019-02-14T21:18:14.500Z,6.90
2019-02-14T21:21:19.464Z,6.90
2019-02-14T21:24:24.777Z,6.80
2019-02-14T21:27:29.701Z,6.70
2019-02-14T21:30:36.203Z,6.80
2019-02-14T21:33:41.529Z,6.70
2019-02-14T21:36:46.553Z,6.60
2019-02-14T21:39:51.764Z,6.60
2019-02-14T21:42:57.609Z,6.60
2019-02-14T21:46:02.744Z,6.60
2019-02-14T21:49:07.768Z,6.50
2019-02-14T21:52:12.900Z,6.50
2019-02-14T21:55:17.941Z,6.50
2019-02-14T21:58:23.184Z,6.50
2019-02-14T22:01:28.110Z,6.40
2019-02-14T22:04:32.995Z,6.30
2019-02-14T22:07:38.018Z,6.30
2019-02-14T22:10:43.133Z,6.30
2019-02-14T22:13:48.119Z,6.20
2019-02-14T22:16:53.331Z,6.20
2019-02-14T22:19:58.098Z,6.20
2019-02-14T22:23:03.284Z,6.10
2019-02-14T22:26:08.246Z,6.10
2019-02-14T22:29:13.285Z,6.10
2019-02-14T22:32:18.216Z,6.00
2019-02-14T22:35:23.223Z,6.00
2019-02-14T22:38:28.386Z,6.00
2019-02-14T22:41:33.320Z,5.90
2019-02-14T22:44:38.209Z,5.90
2019-02-14T22:47:43.910Z,5.80
2019-02-14T22:50:49.001Z,5.80
2019-02-14T22:53:54.291Z,5.80
2019-02-14T22:56:59.242Z,5.80
2019-02-14T23:00:05.828Z,5.80
2019-02-14T23:03:10.960Z,5.70
2019-02-14T23:06:16.043Z,5.70
2019-02-14T23:09:21.166Z,5.70
2019-02-14T23:12:26.322Z,5.60
2019-02-14T23:15:31.324Z,5.50
2019-02-14T23:18:36.141Z,5.50
2019-02-14T23:21:41.125Z,5.40
2019-02-14T23:24:46.148Z,5.40
2019-02-14T23:27:51.205Z,5.40
2019-02-14T23:30:56.184Z,5.30
2019-02-14T23:34:01.061Z,5.20
2019-02-14T23:37:06.188Z,5.30
2019-02-14T23:40:11.485Z,5.30
2019-02-14T23:43:16.645Z,5.20
2019-02-14T23:46:21.752Z,5.20
2019-02-14T23:49:26.998Z,5.10
2019-02-14T23:52:31.875Z,5.10
2019-02-14T23:55:36.911Z,5.10
2019-02-14T23:58:42.092Z,5.10
